Time;durP1;ratioP1;P1;durP2;ratioP2;P2;SDS_P1;SDS_P2;PMS_P1;PMS_P2;Temp;Humidity;BMP_temperature;BMP_pressure;BME280_temperature;BME280_humidity;BME280_pressure;Samples;Min_cycle;Max_cycle;Signal;HPM_P1;HPM_P2
2022/10/25 00:02:29;;;;;;;10.73;5.47;;;14.40;1.00;;;;;;6232630;23;20402;-82
2022/10/25 00:04:59;;;;;;;12.03;5.50;;;14.40;1.00;;;;;;6223849;23;20430;-82
2022/10/25 00:07:27;;;;;;;12.87;6.10;;;14.30;1.00;;;;;;6225140;23;20498;-80
2022/10/25 00:09:54;;;;;;;13.87;6.30;;;14.20;1.00;;;;;;6222779;23;20465;-79
2022/10/25 00:12:29;;;;;;;10.60;5.47;;;14.20;1.00;;;;;;6223668;23;20434;-80
2022/10/25 00:15:00;;;;;;;9.97;4.87;;;14.20;1.00;;;;;;6225422;23;20492;-84
2022/10/25 00:17:28;;;;;;;13.10;5.60;;;14.20;1.00;;;;;;6229808;23;20428;-85
2022/10/25 00:19:59;;;;;;;12.63;5.73;;;14.20;1.00;;;;;;6230442;23;20448;-82
2022/10/25 00:22:28;;;;;;;14.80;5.07;;;14.20;1.00;;;;;;6230402;23;20413;-78
2022/10/25 00:24:57;;;;;;;15.67;4.80;;;14.30;1.00;;;;;;6226083;23;20392;-81
2022/10/25 00:27:26;;;;;;;11.80;5.40;;;14.20;1.00;;;;;;6227591;23;20446;-80
2022/10/25 00:29:57;;;;;;;16.20;5.30;;;14.20;1.00;;;;;;6227446;23;20394;-79
2022/10/25 00:32:28;;;;;;;13.27;5.87;;;14.20;1.00;;;;;;6227942;23;20509;-80
2022/10/25 00:35:03;;;;;;;11.07;5.10;;;14.20;1.00;;;;;;6224551;23;20393;-81
2022/10/25 00:37:30;;;;;;;10.20;4.67;;;14.20;1.00;;;;;;6228010;23;20458;-84
2022/10/25 00:39:57;;;;;;;11.93;5.60;;;14.10;1.00;;;;;;6231557;23;20483;-84
2022/10/25 00:42:26;;;;;;;13.07;5.10;;;14.20;1.00;;;;;;6229452;23;20438;-83
2022/10/25 00:44:58;;;;;;;13.13;5.33;;;14.10;1.00;;;;;;6227800;23;20431;-85
2022/10/25 00:47:56;;;;;;;11.70;5.40;;;14.10;1.00;;;;;;6230255;23;20429;-84
2022/10/25 00:50:45;;;;;;;12.67;5.37;;;14.10;1.00;;;;;;6197611;23;20424;-82
2022/10/25 00:53:19;;;;;;;12.07;6.10;;;14.10;1.00;;;;;;6226112;23;20427;-81
2022/10/25 00:55:50;;;;;;;12.30;5.90;;;14.00;1.00;;;;;;6225878;23;20428;-79
2022/10/25 00:58:21;;;;;;;13.90;6.40;;;14.00;1.00;;;;;;6227104;23;20390;-85
2022/10/25 01:00:49;;;;;;;13.20;6.60;;;14.00;1.00;;;;;;6228857;23;20419;-84
2022/10/25 01:03:22;;;;;;;12.77;6.87;;;14.00;1.00;;;;;;6225904;23;20408;-81
2022/10/25 01:05:57;;;;;;;15.07;5.77;;;14.00;1.00;;;;;;6224578;23;20426;-80
2022/10/25 01:08:27;;;;;;;12.20;6.23;;;14.10;1.00;;;;;;6229536;23;20980;-78
2022/10/25 01:10:57;;;;;;;15.30;6.83;;;14.10;1.00;;;;;;6231888;23;20546;-85
2022/10/25 01:13:29;;;;;;;12.60;5.20;;;14.10;1.00;;;;;;6232512;23;20836;-85
2022/10/25 01:16:09;;;;;;;13.83;6.10;;;14.20;1.00;;;;;;6230733;23;20452;-82
2022/10/25 01:18:46;;;;;;;14.33;6.03;;;14.20;1.00;;;;;;6231632;23;20403;-80
2022/10/25 01:21:47;;;;;;;11.73;5.90;;;14.30;1.00;;;;;;6230397;23;20987;-79
2022/10/25 01:24:41;;;;;;;12.10;5.30;;;14.30;1.00;;;;;;6225835;23;20781;-79
2022/10/25 01:27:58;;;;;;;13.20;4.50;;;14.30;1.00;;;;;;6225704;23;20427;-79
2022/10/25 01:30:35;;;;;;;12.97;5.60;;;14.30;1.00;;;;;;6222952;23;20381;-80
2022/10/25 01:33:17;;;;;;;19.07;6.07;;;14.40;1.00;;;;;;6224398;23;20427;-80
2022/10/25 01:35:57;;;;;;;12.03;6.13;;;14.50;1.00;;;;;;6224286;23;20385;-81
2022/10/25 01:38:37;;;;;;;11.87;4.83;;;14.60;1.00;;;;;;6230141;23;20399;-83
2022/10/25 01:41:17;;;;;;;15.00;4.87;;;14.60;1.00;;;;;;6229901;23;20400;-84
2022/10/25 01:43:55;;;;;;;13.30;5.10;;;14.60;1.00;;;;;;6228480;23;20378;-85
2022/10/25 01:46:31;;;;;;;12.90;4.80;;;14.70;1.00;;;;;;6231991;23;20495;-83
2022/10/25 01:49:09;;;;;;;10.23;4.20;;;14.60;1.00;;;;;;6233080;23;20467;-83
2022/10/25 01:51:38;;;;;;;11.67;4.93;;;14.40;1.00;;;;;;6227584;23;20507;-79
2022/10/25 01:54:19;;;;;;;11.40;4.60;;;14.30;1.00;;;;;;6229088;23;20380;-80
2022/10/25 01:57:10;;;;;;;15.67;5.07;;;14.30;1.00;;;;;;6230383;23;20411;-82
2022/10/25 02:00:05;;;;;;;13.37;5.07;;;14.30;1.00;;;;;;6234423;23;20397;-83
2022/10/25 02:02:48;;;;;;;10.97;4.93;;;14.20;1.00;;;;;;6231629;23;20977;-84
2022/10/25 02:05:26;;;;;;;11.40;4.73;;;14.20;1.00;;;;;;6232706;23;20404;-81
2022/10/25 02:08:08;;;;;;;10.50;4.70;;;14.20;1.00;;;;;;6229980;23;20402;-84
2022/10/25 02:10:48;;;;;;;12.80;5.20;;;14.20;1.00;;;;;;6204029;23;20419;-80
2022/10/25 02:13:28;;;;;;;14.50;5.23;;;14.20;1.00;;;;;;6228580;23;20411;-84
2022/10/25 02:16:03;;;;;;;11.03;4.87;;;14.10;1.00;;;;;;6227576;23;20380;-79
2022/10/25 02:18:37;;;;;;;13.30;5.20;;;14.10;1.00;;;;;;6230203;23;20406;-84
2022/10/25 02:21:07;;;;;;;11.77;5.27;;;14.10;1.00;;;;;;6230326;23;20493;-81
2022/10/25 02:23:39;;;;;;;11.90;5.07;;;14.10;1.00;;;;;;6228089;23;20395;-81
2022/10/25 02:26:10;;;;;;;13.33;5.90;;;14.10;1.00;;;;;;6227028;23;20437;-80
2022/10/25 02:28:41;;;;;;;15.37;5.70;;;14.10;1.00;;;;;;6231140;23;20469;-84
2022/10/25 02:31:17;;;;;;;14.40;5.17;;;14.20;1.00;;;;;;6228668;23;20421;-85
2022/10/25 02:33:47;;;;;;;14.77;6.37;;;14.20;1.00;;;;;;6226628;23;20423;-81
2022/10/25 02:36:19;;;;;;;11.97;5.87;;;14.20;1.00;;;;;;6227405;23;20388;-83
2022/10/25 02:38:47;;;;;;;12.97;5.43;;;14.20;1.00;;;;;;6225703;23;20515;-81
2022/10/25 02:41:19;;;;;;;12.70;5.37;;;14.20;1.00;;;;;;6228775;23;20498;-85
2022/10/25 02:43:46;;;;;;;10.53;5.03;;;14.20;1.00;;;;;;6228161;23;20524;-84
2022/10/25 02:46:21;;;;;;;12.20;5.60;;;14.20;1.00;;;;;;6226558;22;20386;-81
2022/10/25 02:48:49;;;;;;;13.53;5.03;;;14.20;1.00;;;;;;6228073;23;20450;-85
2022/10/25 02:51:20;;;;;;;12.60;4.70;;;14.20;1.00;;;;;;6228599;23;20443;-83
2022/10/25 02:53:48;;;;;;;11.57;5.80;;;14.10;1.00;;;;;;6226733;23;20884;-79
2022/10/25 02:56:20;;;;;;;15.77;5.30;;;14.10;1.00;;;;;;6228371;23;20398;-82
2022/10/25 02:58:49;;;;;;;14.10;5.80;;;14.10;1.00;;;;;;6227981;23;20780;-79
2022/10/25 03:01:20;;;;;;;12.50;6.50;;;14.10;1.00;;;;;;6227073;23;20451;-79
2022/10/25 03:03:50;;;;;;;14.80;6.03;;;14.20;1.00;;;;;;6225966;23;20448;-81
2022/10/25 03:06:19;;;;;;;17.70;6.97;;;14.20;1.00;;;;;;6229273;23;20463;-84
2022/10/25 03:08:46;;;;;;;16.07;5.40;;;14.20;1.00;;;;;;6231061;23;20439;-83
2022/10/25 03:11:18;;;;;;;13.63;5.30;;;14.20;1.00;;;;;;6231510;23;20440;-80
2022/10/25 03:13:45;;;;;;;14.47;5.60;;;14.30;1.00;;;;;;6226939;23;20844;-80
2022/10/25 03:16:12;;;;;;;14.13;6.57;;;14.30;1.00;;;;;;6227244;23;20427;-82
2022/10/25 03:18:39;;;;;;;12.13;5.13;;;14.30;1.00;;;;;;6227310;23;20444;-80
2022/10/25 03:21:08;;;;;;;11.27;5.20;;;14.20;1.00;;;;;;6228879;23;20768;-80
2022/10/25 03:23:39;;;;;;;13.73;5.83;;;14.20;1.00;;;;;;6228527;23;20437;-79
2022/10/25 03:26:06;;;;;;;12.20;5.33;;;14.20;1.00;;;;;;6231128;23;20431;-84
2022/10/25 03:28:37;;;;;;;14.67;5.10;;;14.20;1.00;;;;;;6227412;23;20431;-84
2022/10/25 03:31:18;;;;;;;13.37;5.40;;;14.20;1.00;;;;;;6229244;23;20419;-84
2022/10/25 03:33:50;;;;;;;12.20;4.47;;;14.30;1.00;;;;;;6232121;23;20404;-83
2022/10/25 03:36:18;;;;;;;14.57;5.50;;;14.30;1.00;;;;;;6232401;23;20416;-85
2022/10/25 03:38:47;;;;;;;10.90;5.00;;;14.30;1.00;;;;;;6228875;23;21419;-84
2022/10/25 03:41:17;;;;;;;12.00;4.93;;;14.30;1.00;;;;;;6232605;23;20441;-85
2022/10/25 03:43:44;;;;;;;11.87;4.33;;;14.30;1.00;;;;;;6225438;23;20428;-84
2022/10/25 03:46:11;;;;;;;13.13;4.33;;;14.40;1.00;;;;;;6230520;23;21017;-84
2022/10/25 03:48:38;;;;;;;12.70;4.00;;;14.40;1.00;;;;;;6232522;23;20387;-83
2022/10/25 03:51:05;;;;;;;12.73;3.90;;;14.30;1.00;;;;;;6231192;23;20991;-82
2022/10/25 03:53:32;;;;;;;9.03;4.00;;;14.20;1.00;;;;;;6228853;23;20844;-82
2022/10/25 03:56:00;;;;;;;8.87;3.27;;;14.10;1.00;;;;;;6226314;23;20423;-80
2022/10/25 03:58:27;;;;;;;10.50;3.37;;;14.10;1.00;;;;;;6226680;23;20773;-84
2022/10/25 04:00:59;;;;;;;9.87;3.70;;;14.00;1.00;;;;;;6229600;23;20407;-85
2022/10/25 04:03:27;;;;;;;9.60;4.13;;;14.00;1.00;;;;;;6225643;23;20419;-79
2022/10/25 04:05:58;;;;;;;11.87;3.37;;;14.00;1.00;;;;;;6225928;23;20431;-79
2022/10/25 04:08:28;;;;;;;12.97;3.80;;;14.00;1.00;;;;;;6230179;23;20522;-84
2022/10/25 04:11:00;;;;;;;12.83;4.80;;;14.00;1.00;;;;;;6234077;23;20447;-85
2022/10/25 04:13:27;;;;;;;11.67;4.03;;;14.00;1.00;;;;;;6232631;23;20646;-80
2022/10/25 04:16:00;;;;;;;12.20;4.00;;;13.90;1.00;;;;;;6233738;23;20383;-84
2022/10/25 04:18:27;;;;;;;10.27;3.27;;;14.00;1.00;;;;;;6229762;23;21080;-87
2022/10/25 04:21:01;;;;;;;9.40;3.70;;;14.00;1.00;;;;;;6223193;23;20408;-81
2022/10/25 04:23:30;;;;;;;11.50;3.63;;;14.00;1.00;;;;;;6226660;23;20876;-80
2022/10/25 04:26:00;;;;;;;10.57;4.13;;;14.00;1.00;;;;;;6223574;23;21167;-81
2022/10/25 04:28:30;;;;;;;9.10;3.80;;;14.00;1.00;;;;;;6232049;23;20503;-84
2022/10/25 04:30:58;;;;;;;10.00;3.60;;;14.00;1.00;;;;;;6234933;23;20396;-83
2022/10/25 04:33:29;;;;;;;8.73;3.00;;;13.90;1.00;;;;;;6233661;23;20451;-81
2022/10/25 04:35:58;;;;;;;12.23;3.30;;;13.90;1.00;;;;;;6230819;23;20489;-85
2022/10/25 04:38:30;;;;;;;11.83;4.17;;;14.00;1.00;;;;;;6208957;23;20456;-85
2022/10/25 04:41:01;;;;;;;9.70;3.30;;;14.00;1.00;;;;;;6233660;23;20407;-83
2022/10/25 04:43:29;;;;;;;11.13;3.27;;;14.00;1.00;;;;;;6232223;23;20403;-87
2022/10/25 04:46:00;;;;;;;9.17;3.77;;;14.00;1.00;;;;;;6229363;23;20437;-85
2022/10/25 04:48:29;;;;;;;9.20;3.53;;;14.00;1.00;;;;;;6235846;23;20431;-81
2022/10/25 04:50:58;;;;;;;9.00;4.10;;;14.00;1.00;;;;;;6228119;23;20420;-83
2022/10/25 04:53:27;;;;;;;9.20;3.40;;;14.00;1.00;;;;;;6228275;23;20420;-80
2022/10/25 04:55:59;;;;;;;9.37;4.10;;;14.00;1.00;;;;;;6225586;23;20369;-80
2022/10/25 04:58:29;;;;;;;8.17;3.60;;;13.90;1.00;;;;;;6226482;23;20465;-83
2022/10/25 05:01:00;;;;;;;11.83;4.60;;;13.90;1.00;;;;;;6226059;23;20860;-80
2022/10/25 05:03:27;;;;;;;12.33;5.10;;;13.90;1.00;;;;;;6228483;23;20435;-84
2022/10/25 05:06:03;;;;;;;11.63;4.37;;;13.80;1.00;;;;;;6226872;23;20447;-81
2022/10/25 05:08:30;;;;;;;11.10;3.97;;;13.90;1.00;;;;;;6233346;23;20445;-81
2022/10/25 05:10:58;;;;;;;9.73;4.37;;;13.80;1.00;;;;;;6229047;23;20400;-82
2022/10/25 05:13:30;;;;;;;10.03;3.40;;;13.80;1.00;;;;;;6230372;23;20432;-80
2022/10/25 05:15:59;;;;;;;8.20;3.70;;;13.80;1.00;;;;;;6231925;23;20398;-85
2022/10/25 05:18:33;;;;;;;8.63;3.10;;;13.80;1.00;;;;;;6235546;23;20407;-84
2022/10/25 05:21:29;;;;;;;10.90;2.83;;;13.80;1.00;;;;;;6233063;23;20431;-85
2022/10/25 05:23:59;;;;;;;11.17;3.40;;;13.70;1.00;;;;;;6236778;23;20387;-83
2022/10/25 05:26:29;;;;;;;9.00;2.83;;;13.70;1.00;;;;;;6232147;23;21046;-81
2022/10/25 05:29:01;;;;;;;10.70;3.27;;;13.60;1.00;;;;;;6231927;23;21187;-84
2022/10/25 05:31:30;;;;;;;9.17;2.80;;;13.60;1.00;;;;;;6232779;23;20475;-85
2022/10/25 05:34:01;;;;;;;9.60;3.07;;;13.50;1.00;;;;;;6231956;23;20417;-85
2022/10/25 05:36:31;;;;;;;10.53;3.13;;;13.50;1.00;;;;;;6233487;23;21642;-83
2022/10/25 05:38:59;;;;;;;10.20;3.47;;;13.50;1.00;;;;;;6231733;23;20435;-85
2022/10/25 05:41:38;;;;;;;9.13;3.40;;;13.40;1.00;;;;;;6235361;23;20443;-85
2022/10/25 05:44:10;;;;;;;10.20;3.30;;;13.40;1.00;;;;;;6234720;23;20394;-85
2022/10/25 05:46:41;;;;;;;11.23;3.20;;;13.40;1.00;;;;;;6232581;22;20396;-80
2022/10/25 05:49:09;;;;;;;11.93;3.53;;;13.40;1.00;;;;;;6232929;23;20414;-85
2022/10/25 05:51:39;;;;;;;11.73;3.80;;;13.40;1.00;;;;;;6232600;23;20464;-82
2022/10/25 05:54:17;;;;;;;9.13;3.70;;;13.40;1.00;;;;;;6233374;23;20394;-83
2022/10/25 05:56:50;;;;;;;11.07;2.97;;;13.50;1.00;;;;;;6234212;23;20425;-82
2022/10/25 05:59:29;;;;;;;10.07;3.20;;;13.50;1.00;;;;;;6234794;23;20418;-81
2022/10/25 06:02:01;;;;;;;9.33;2.87;;;13.60;1.00;;;;;;6226804;23;20415;-83
2022/10/25 06:04:31;;;;;;;14.37;3.57;;;13.60;1.00;;;;;;6234342;23;20431;-82
2022/10/25 06:06:58;;;;;;;8.47;2.80;;;13.60;1.00;;;;;;6230874;23;20421;-80
2022/10/25 06:09:30;;;;;;;8.43;2.73;;;13.70;1.00;;;;;;6230264;23;20408;-82
2022/10/25 06:11:58;;;;;;;14.10;2.83;;;13.70;1.00;;;;;;6230021;23;20389;-82
2022/10/25 06:14:32;;;;;;;9.70;2.90;;;13.80;1.00;;;;;;6231541;23;20419;-79
2022/10/25 06:16:59;;;;;;;11.20;2.80;;;13.80;1.00;;;;;;6234557;23;20435;-81
2022/10/25 06:19:31;;;;;;;9.53;2.20;;;14.00;1.00;;;;;;6235558;22;20407;-84
2022/10/25 06:22:01;;;;;;;9.10;2.77;;;14.00;1.00;;;;;;6233004;23;20404;-85
2022/10/25 06:24:31;;;;;;;8.53;2.40;;;14.20;1.00;;;;;;6234832;23;21276;-79
2022/10/25 06:26:59;;;;;;;9.30;3.20;;;14.30;1.00;;;;;;6219351;23;20377;-84
2022/10/25 06:29:30;;;;;;;10.97;2.47;;;14.30;1.00;;;;;;6231935;23;20412;-84
2022/10/25 06:32:01;;;;;;;9.40;2.33;;;14.40;1.00;;;;;;6231822;23;20430;-80
2022/10/25 06:34:28;;;;;;;9.23;2.50;;;14.50;1.00;;;;;;6235200;23;20460;-83
2022/10/25 06:36:59;;;;;;;11.33;3.07;;;14.50;1.00;;;;;;6235047;23;20474;-85
2022/10/25 06:39:26;;;;;;;9.03;2.53;;;14.60;1.00;;;;;;6232197;23;20425;-81
2022/10/25 06:42:01;;;;;;;9.00;2.30;;;14.70;1.00;;;;;;6228919;23;20459;-80
2022/10/25 06:44:31;;;;;;;8.87;2.47;;;14.80;1.00;;;;;;6233065;23;20400;-81
2022/10/25 06:46:59;;;;;;;9.83;2.63;;;14.80;1.00;;;;;;6232313;23;20423;-85
2022/10/25 06:49:29;;;;;;;9.37;3.37;;;14.80;1.00;;;;;;6235230;23;20388;-84
2022/10/25 06:52:00;;;;;;;9.43;2.10;;;14.90;1.00;;;;;;6231632;23;20487;-80
2022/10/25 06:54:30;;;;;;;8.40;2.30;;;14.90;1.00;;;;;;6212280;23;20585;-79
2022/10/25 06:57:00;;;;;;;8.73;2.50;;;14.90;1.00;;;;;;6190389;23;20402;-84
2022/10/25 07:00:08;;;;;;;11.73;1.90;;;15.00;1.00;;;;;;6238462;23;20431;-83
2022/10/25 07:02:40;;;;;;;10.27;2.30;;;15.00;1.00;;;;;;6221668;23;20387;-81
2022/10/25 07:05:10;;;;;;;9.53;2.87;;;15.10;1.00;;;;;;6234262;23;20714;-81
2022/10/25 07:07:50;;;;;;;11.63;2.77;;;15.10;1.00;;;;;;6232410;23;20368;-79
2022/10/25 07:10:18;;;;;;;8.23;2.30;;;15.20;1.00;;;;;;6233781;23;20493;-80
2022/10/25 07:12:48;;;;;;;10.70;2.67;;;15.40;1.00;;;;;;6229265;23;20465;-78
2022/10/25 07:15:24;;;;;;;10.67;2.87;;;15.40;1.00;;;;;;6231075;23;20391;-83
2022/10/25 07:18:08;;;;;;;8.57;2.60;;;15.50;1.00;;;;;;6230809;23;22730;-84
2022/10/25 07:20:38;;;;;;;13.30;3.97;;;15.50;1.00;;;;;;6232624;23;20398;-84
2022/10/25 07:23:08;;;;;;;10.53;3.33;;;15.40;1.00;;;;;;6230693;23;20460;-85
2022/10/25 07:25:39;;;;;;;11.80;3.10;;;15.30;1.00;;;;;;6231341;23;20411;-84
2022/10/25 07:28:06;;;;;;;10.03;3.07;;;15.20;1.00;;;;;;6233854;23;20424;-84
2022/10/25 07:30:38;;;;;;;11.30;3.20;;;15.20;1.00;;;;;;6231947;23;20435;-86
2022/10/25 07:33:10;;;;;;;11.50;3.00;;;15.30;1.00;;;;;;6229672;23;20425;-81
2022/10/25 07:35:39;;;;;;;10.43;3.00;;;15.20;1.00;;;;;;6213492;23;20399;-81
2022/10/25 07:38:10;;;;;;;12.10;3.17;;;15.30;1.00;;;;;;6228768;23;20477;-80
2022/10/25 07:40:39;;;;;;;9.93;3.30;;;15.40;1.00;;;;;;6227044;23;20403;-81
2022/10/25 07:43:11;;;;;;;9.00;2.40;;;15.30;1.00;;;;;;6231629;23;20515;-82
2022/10/25 07:45:39;;;;;;;13.00;3.00;;;15.30;1.00;;;;;;6231483;23;20520;-84
2022/10/25 07:48:12;;;;;;;10.37;2.90;;;15.40;1.00;;;;;;6218641;23;20416;-81
2022/10/25 07:50:39;;;;;;;9.43;3.10;;;15.50;1.00;;;;;;6230241;23;20427;-79
2022/10/25 07:53:19;;;;;;;9.37;3.00;;;15.50;1.00;;;;;;6233150;23;20416;-82
2022/10/25 07:55:51;;;;;;;8.90;2.50;;;15.50;1.00;;;;;;6220859;23;20386;-85
2022/10/25 07:58:28;;;;;;;10.97;3.00;;;15.50;1.00;;;;;;6234123;23;20368;-83
2022/10/25 08:01:20;;;;;;;10.87;3.03;;;15.60;1.00;;;;;;6235309;23;21074;-82
2022/10/25 08:04:01;;;;;;;9.17;2.77;;;15.90;1.00;;;;;;6237145;23;20411;-82
2022/10/25 08:06:29;;;;;;;10.57;3.23;;;16.10;1.00;;;;;;6206510;23;20577;-85
2022/10/25 08:09:09;;;;;;;11.23;3.20;;;16.20;1.00;;;;;;6225866;23;20390;-84
2022/10/25 08:11:42;;;;;;;8.30;2.53;;;16.00;1.00;;;;;;6229913;23;20461;-80
2022/10/25 08:14:09;;;;;;;9.23;2.97;;;15.80;1.00;;;;;;6227113;23;21028;-79
2022/10/25 08:16:40;;;;;;;10.90;3.27;;;15.70;1.00;;;;;;6227823;22;20470;-84
2022/10/25 08:19:12;;;;;;;10.37;2.80;;;15.60;1.00;;;;;;6228131;23;20523;-80
2022/10/25 08:21:40;;;;;;;11.70;2.93;;;15.40;1.00;;;;;;6225775;23;20436;-81
2022/10/25 08:24:12;;;;;;;12.10;3.10;;;15.20;1.00;;;;;;6213179;23;20400;-85
2022/10/25 08:44:49;;;;;;;9.37;2.90;;;14.80;1.00;;;;;;6037574;23;20508;-80
2022/10/25 08:47:21;;;;;;;9.27;2.60;;;14.70;1.00;;;;;;6175134;23;20414;-81
2022/10/25 08:49:55;;;;;;;10.87;2.67;;;14.60;1.00;;;;;;6227771;23;20426;-80
2022/10/25 08:52:38;;;;;;;9.93;2.60;;;14.60;1.00;;;;;;6229102;23;20933;-82
2022/10/25 08:55:14;;;;;;;13.00;3.07;;;14.60;1.00;;;;;;6229247;23;20412;-80
2022/10/25 08:57:50;;;;;;;12.13;3.00;;;14.70;1.00;;;;;;6216068;23;20777;-84
2022/10/25 09:00:30;;;;;;;12.53;3.30;;;14.70;1.00;;;;;;6235068;23;20379;-79
2022/10/25 09:03:00;;;;;;;10.80;3.13;;;14.80;1.00;;;;;;6231922;23;20423;-84
2022/10/25 09:05:40;;;;;;;11.43;3.33;;;14.90;1.00;;;;;;6233486;23;20436;-83
2022/10/25 09:08:49;;;;;;;11.60;3.23;;;14.80;1.00;;;;;;6229464;23;20391;-83
2022/10/25 09:11:32;;;;;;;11.03;3.87;;;15.00;1.00;;;;;;6229632;23;20526;-86
2022/10/25 09:14:09;;;;;;;11.70;3.40;;;15.20;1.00;;;;;;6228843;23;20452;-80
2022/10/25 09:16:49;;;;;;;10.07;2.77;;;15.90;1.00;;;;;;6229600;23;20527;-84
2022/10/25 09:19:21;;;;;;;12.63;3.47;;;16.30;1.00;;;;;;6227217;23;20469;-81
2022/10/25 09:21:58;;;;;;;12.70;3.10;;;16.30;1.00;;;;;;6228655;23;20418;-79
2022/10/25 09:24:35;;;;;;;9.30;2.80;;;16.10;1.00;;;;;;6221759;23;20412;-82
2022/10/25 09:27:11;;;;;;;13.73;3.37;;;16.00;1.00;;;;;;6220717;23;20456;-81
2022/10/25 09:29:41;;;;;;;11.50;3.23;;;16.00;1.00;;;;;;6232465;23;20487;-85
2022/10/25 09:32:19;;;;;;;9.90;2.60;;;16.00;1.00;;;;;;6232183;23;20443;-83
2022/10/25 09:34:54;;;;;;;9.83;3.03;;;16.10;1.00;;;;;;6234006;23;20403;-86
2022/10/25 09:37:31;;;;;;;10.63;3.13;;;16.10;1.00;;;;;;6230949;23;20443;-82
2022/10/25 09:40:11;;;;;;;14.00;3.67;;;16.20;1.00;;;;;;6227876;23;20435;-81
2022/10/25 09:42:58;;;;;;;11.97;4.00;;;16.20;1.00;;;;;;6217390;23;20433;-82
2022/10/25 09:45:29;;;;;;;10.33;2.83;;;16.40;1.00;;;;;;6201457;23;20395;-82
2022/10/25 09:48:19;;;;;;;11.17;2.80;;;16.70;1.00;;;;;;6231700;22;20482;-86
2022/10/25 09:51:00;;;;;;;11.93;3.50;;;16.70;1.00;;;;;;6230942;23;20389;-82
2022/10/25 09:53:41;;;;;;;9.63;3.13;;;16.90;1.00;;;;;;6231869;23;20419;-89
2022/10/25 09:56:19;;;;;;;9.70;2.87;;;17.10;1.00;;;;;;6236234;23;20442;-85
2022/10/25 09:58:49;;;;;;;8.87;3.27;;;17.40;1.00;;;;;;6233784;23;20466;-89
2022/10/25 10:01:24;;;;;;;8.90;3.00;;;17.30;1.00;;;;;;6233375;23;20447;-87
2022/10/25 10:04:00;;;;;;;8.10;3.00;;;17.40;1.00;;;;;;6234390;23;20422;-86
2022/10/25 10:06:41;;;;;;;9.73;2.97;;;17.30;1.00;;;;;;6219141;23;20451;-85
2022/10/25 10:09:24;;;;;;;9.50;3.00;;;17.30;1.00;;;;;;6234718;23;20517;-86
2022/10/25 10:12:05;;;;;;;9.60;3.03;;;17.10;1.00;;;;;;6232097;22;20410;-87
2022/10/25 10:14:53;;;;;;;10.00;3.47;;;17.00;1.00;;;;;;6237229;23;20426;-86
2022/10/25 10:17:23;;;;;;;11.73;3.00;;;16.90;1.00;;;;;;6234840;23;20418;-82
2022/10/25 10:20:19;;;;;;;8.67;2.80;;;16.80;1.00;;;;;;6229014;23;20533;-83
2022/10/25 10:23:10;;;;;;;10.23;3.03;;;16.60;1.00;;;;;;6229391;23;20387;-82
2022/10/25 10:25:52;;;;;;;9.93;2.80;;;16.60;1.00;;;;;;6205040;23;21280;-85
2022/10/25 10:28:22;;;;;;;10.93;3.10;;;16.70;1.00;;;;;;6233180;23;20397;-82
2022/10/25 10:30:58;;;;;;;9.40;2.70;;;16.70;1.00;;;;;;6232487;23;20436;-85
2022/10/25 10:33:32;;;;;;;11.00;2.57;;;16.70;1.00;;;;;;6218294;23;20392;-87
2022/10/25 10:36:38;;;;;;;14.73;3.57;;;16.80;1.00;;;;;;6235008;23;20465;-82
2022/10/25 10:39:33;;;;;;;;;;;;;;;;;;;;;
2022/10/25 10:42:21;;;;;;;9.07;3.37;;;16.70;1.00;;;;;;6190129;23;50547;-85
2022/10/25 10:45:21;;;;;;;8.50;2.90;;;16.60;1.00;;;;;;6236872;23;20418;-85
2022/10/25 10:48:01;;;;;;;8.97;2.73;;;16.60;1.00;;;;;;6221778;22;20405;-82
2022/10/25 10:50:34;;;;;;;8.73;2.90;;;16.50;1.00;;;;;;6224779;22;20383;-85
2022/10/25 10:53:12;;;;;;;11.70;3.40;;;16.60;1.00;;;;;;6173904;23;20435;-82
2022/10/25 11:09:18;;;;;;;7.93;2.90;;;16.60;1.00;;;;;;6344886;22;1318238;-83
2022/10/25 11:11:58;;;;;;;9.80;3.47;;;16.80;1.00;;;;;;6327197;22;20213;-82
2022/10/25 11:14:41;;;;;;;12.93;3.60;;;17.00;1.00;;;;;;6326686;22;20466;-84
2022/10/25 11:17:15;;;;;;;12.30;6.50;;;17.30;1.00;;;;;;6324612;22;20447;-85
2022/10/25 11:20:10;;;;;;;10.17;3.40;;;17.70;1.00;;;;;;6327567;22;20440;-85
2022/10/25 11:22:52;;;;;;;10.00;2.90;;;18.10;1.00;;;;;;6293180;22;20881;-85
2022/10/25 11:25:31;;;;;;;10.53;2.70;;;18.70;1.00;;;;;;6295597;22;20422;-86
2022/10/25 11:28:27;;;;;;;11.10;3.90;;;19.50;1.00;;;;;;6294733;22;20755;-85
2022/10/25 11:31:09;;;;;;;9.27;3.07;;;20.20;1.00;;;;;;6295040;22;20447;-85
2022/10/25 11:33:51;;;;;;;9.97;3.10;;;20.40;1.00;;;;;;6294442;22;20427;-84
2022/10/25 11:36:40;;;;;;;9.67;2.57;;;20.10;1.00;;;;;;6300312;22;20396;-83
2022/10/25 11:39:39;;;;;;;8.53;2.80;;;19.70;1.00;;;;;;6293964;22;20430;-83
2022/10/25 11:42:33;;;;;;;14.20;2.87;;;19.50;1.00;;;;;;6295523;22;20402;-85
2022/10/25 11:45:19;;;;;;;9.20;2.63;;;19.70;1.00;;;;;;6277745;22;20849;-86
2022/10/25 11:48:05;;;;;;;7.33;2.70;;;20.00;1.00;;;;;;6293000;22;20442;-86
2022/10/25 11:50:43;;;;;;;8.30;2.70;;;20.00;1.00;;;;;;6296159;22;20527;-83
2022/10/25 11:53:44;;;;;;;8.97;2.93;;;19.70;1.00;;;;;;6298661;22;20436;-83
2022/10/25 11:56:17;;;;;;;7.90;2.63;;;20.00;1.00;;;;;;6296314;22;21161;-84
2022/10/25 11:58:59;;;;;;;7.80;3.30;;;20.30;1.00;;;;;;6294822;22;20423;-84
2022/10/25 12:01:37;;;;;;;11.00;3.13;;;20.70;1.00;;;;;;6297891;22;20443;-85
2022/10/25 12:04:23;;;;;;;8.47;2.73;;;21.30;1.00;;;;;;6295039;22;20494;-83
2022/10/25 12:06:58;;;;;;;9.37;2.60;;;22.40;1.00;;;;;;6300139;22;20461;-84
2022/10/25 12:09:33;;;;;;;10.10;3.37;;;22.70;1.00;;;;;;6293157;22;20416;-84
2022/10/25 12:12:05;;;;;;;6.50;2.33;;;23.50;1.00;;;;;;6290086;22;20422;-84
2022/10/25 12:14:38;;;;;;;11.87;3.30;;;24.10;1.00;;;;;;6293464;22;20411;-86
2022/10/25 12:17:19;;;;;;;9.50;2.53;;;23.70;1.00;;;;;;6289431;22;20408;-85
2022/10/25 12:19:52;;;;;;;8.00;2.20;;;22.50;1.00;;;;;;6299061;22;20406;-86
2022/10/25 12:22:26;;;;;;;8.83;2.90;;;21.90;1.00;;;;;;6322179;22;20463;-85
2022/10/25 12:24:58;;;;;;;10.27;3.30;;;22.00;1.00;;;;;;6318921;22;20395;-85
2022/10/25 12:27:30;;;;;;;7.07;2.83;;;21.80;1.00;;;;;;6319715;22;20419;-85
2022/10/25 12:30:04;;;;;;;7.70;2.60;;;21.40;1.00;;;;;;6319524;22;20432;-84
2022/10/25 12:32:40;;;;;;;11.83;3.37;;;21.00;1.00;;;;;;6320790;22;20527;-84
2022/10/25 12:35:22;;;;;;;7.77;3.53;;;20.80;1.00;;;;;;6322840;22;20499;-84
2022/10/25 12:37:53;;;;;;;8.53;2.73;;;21.00;1.00;;;;;;6320565;22;20452;-84
2022/10/25 12:40:23;;;;;;;7.93;2.40;;;21.60;1.00;;;;;;6321785;22;20399;-84
2022/10/25 12:42:54;;;;;;;8.27;2.80;;;21.80;1.00;;;;;;6320274;22;20432;-86
2022/10/25 12:45:59;;;;;;;9.43;2.83;;;22.10;1.00;;;;;;6318562;22;20781;-83
2022/10/25 12:48:52;;;;;;;7.40;2.60;;;22.80;1.00;;;;;;6269742;22;20401;-80
2022/10/25 12:51:36;;;;;;;7.57;2.40;;;23.00;1.00;;;;;;6317563;22;20513;-81
2022/10/25 12:54:31;;;;;;;13.50;2.57;;;22.10;1.00;;;;;;6321786;22;20429;-80
2022/10/25 12:57:06;;;;;;;10.27;3.20;;;21.10;1.00;;;;;;6310327;22;20435;-81
2022/10/25 12:59:48;;;;;;;10.13;2.90;;;20.50;1.00;;;;;;6316688;22;20413;-80
2022/10/25 13:02:45;;;;;;;8.77;3.00;;;20.30;1.00;;;;;;6317966;22;20433;-81
2022/10/25 13:05:42;;;;;;;8.20;2.70;;;20.00;1.00;;;;;;6317892;22;20437;-81
2022/10/25 13:08:10;;;;;;;8.33;2.80;;;19.40;1.00;;;;;;6315455;22;20425;-80
2022/10/25 13:10:46;;;;;;;7.27;2.67;;;18.90;1.00;;;;;;6314857;22;20409;-80
2022/10/25 13:13:19;;;;;;;7.47;2.67;;;18.50;1.00;;;;;;6314883;22;20421;-80
2022/10/25 13:15:49;;;;;;;9.60;2.67;;;18.30;1.00;;;;;;6286986;22;20476;-80
2022/10/25 13:18:37;;;;;;;8.80;2.63;;;18.40;1.00;;;;;;6316246;22;20423;-80
2022/10/25 13:21:06;;;;;;;10.43;2.87;;;19.20;1.00;;;;;;6313799;22;20412;-80
2022/10/25 13:24:05;;;;;;;8.30;2.90;;;19.70;1.00;;;;;;6315602;22;20490;-80
2022/10/25 13:26:54;;;;;;;9.17;3.07;;;19.80;1.00;;;;;;6314134;22;20524;-80
2022/10/25 13:30:00;;;;;;;7.97;3.17;;;19.60;1.00;;;;;;6314585;22;20616;-82
2022/10/25 13:32:28;;;;;;;8.30;3.00;;;19.20;1.00;;;;;;6286382;22;20436;-80
2022/10/25 13:34:57;;;;;;;8.13;2.63;;;18.90;1.00;;;;;;6316021;22;20419;-80
2022/10/25 13:37:43;;;;;;;13.53;3.77;;;18.70;1.00;;;;;;6317575;22;20378;-81
2022/10/25 13:40:23;;;;;;;9.10;3.30;;;18.60;1.00;;;;;;6316563;22;20445;-80
2022/10/25 13:43:05;;;;;;;8.87;3.20;;;18.30;1.00;;;;;;6316633;22;20429;-81
2022/10/25 13:45:40;;;;;;;10.13;3.93;;;17.90;1.00;;;;;;6315621;22;20480;-80
2022/10/25 13:48:17;;;;;;;8.77;3.40;;;17.50;1.00;;;;;;6320374;22;20790;-80
2022/10/25 13:50:48;;;;;;;8.83;3.83;;;17.20;1.00;;;;;;6318613;22;20962;-79
2022/10/25 13:53:21;;;;;;;12.63;4.13;;;17.10;1.00;;;;;;6315135;22;20420;-81
2022/10/25 13:55:59;;;;;;;9.90;3.87;;;17.10;1.00;;;;;;6319760;22;20475;-80
2022/10/25 13:58:45;;;;;;;12.43;5.20;;;17.10;1.00;;;;;;6317101;22;20481;-81
2022/10/25 14:01:55;;;;;;;9.00;4.13;;;17.00;1.00;;;;;;6312699;22;20436;-81
2022/10/25 14:04:41;;;;;;;7.60;3.77;;;17.10;1.00;;;;;;6314925;22;20382;-80
2022/10/25 14:07:44;;;;;;;9.77;4.20;;;17.30;1.00;;;;;;6315521;22;20397;-80
2022/10/25 14:10:27;;;;;;;8.70;2.60;;;17.40;1.00;;;;;;6317335;22;20420;-81